Time;durP1;ratioP1;P1;durP2;ratioP2;P2;SDS_P1;SDS_P2;PMS_P1;PMS_P2;Temp;Humidity;BMP_temperature;BMP_pressure;BME280_temperature;BME280_humidity;BME280_pressure;Samples;Min_cycle;Max_cycle;Signal;HPM_P1;HPM_P2
2021/06/15 00:00:45;;;;;;;3.95;1.40;;;;;;;20.33;52.02;101248.56;144994;628;5002;-79
2021/06/15 00:03:12;;;;;;;3.90;1.77;;;;;;;20.17;54.05;101239.81;144994;584;5002;-79
2021/06/15 00:05:39;;;;;;;3.72;1.60;;;;;;;20.16;54.46;101243.31;144994;659;4566;-80
2021/06/15 00:08:05;;;;;;;1.52;1.33;;;;;;;20.39;52.45;101250.28;144994;592;4572;-80
2021/06/15 00:10:32;;;;;;;2.78;1.60;;;;;;;20.32;53.58;101248.56;144994;565;4572;-79
2021/06/15 00:12:59;;;;;;;3.47;1.37;;;;;;;20.36;53.20;101243.28;144992;563;6002;-78
2021/06/15 00:15:26;;;;;;;1.98;1.60;;;;;;;20.29;53.85;101245.03;144992;625;6002;-79
2021/06/15 00:17:54;;;;;;;3.50;1.75;;;;;;;20.30;53.72;101244.16;144992;646;6002;-80
2021/06/15 00:20:23;;;;;;;2.90;1.60;;;;;;;20.31;52.12;101242.41;144992;581;6002;-81
2021/06/15 00:22:52;;;;;;;1.67;1.48;;;;;;;20.36;52.02;101245.03;144992;582;6002;-80
2021/06/15 00:25:19;;;;;;;2.80;1.50;;;;;;;20.33;53.77;101234.50;144992;590;6002;-79
2021/06/15 00:27:48;;;;;;;1.65;1.33;;;;;;;20.27;53.29;101232.75;144992;654;6002;-80
2021/06/15 00:30:16;;;;;;;4.40;2.05;;;;;;;20.23;52.73;101231.88;144992;734;6003;-79
2021/06/15 00:32:45;;;;;;;2.60;1.17;;;;;;;20.33;52.57;101224.84;144992;642;6002;-79
2021/06/15 00:35:12;;;;;;;1.50;1.40;;;;;;;20.22;53.01;101223.97;144992;588;6002;-79
2021/06/15 00:37:38;;;;;;;1.65;1.25;;;;;;;20.27;51.90;101224.84;144992;598;6002;-77
2021/06/15 00:40:06;;;;;;;1.85;1.20;;;;;;;20.06;54.36;101231.91;144992;585;6002;-79
2021/06/15 00:42:32;;;;;;;3.45;1.60;;;;;;;19.96;53.93;101226.66;144992;613;6002;-78
2021/06/15 00:44:59;;;;;;;4.37;1.48;;;;;;;19.89;54.85;101231.91;144992;582;6002;-79
2021/06/15 00:47:26;;;;;;;2.15;1.30;;;;;;;19.65;55.39;101230.13;144992;654;6002;-79
2021/06/15 00:49:54;;;;;;;3.42;1.40;;;;;;;19.47;56.44;101233.66;144992;577;6002;-79
2021/06/15 00:52:21;;;;;;;2.25;1.27;;;;;;;19.37;56.42;101230.09;144992;575;6002;-79
2021/06/15 00:54:49;;;;;;;2.67;1.40;;;;;;;19.56;55.20;101231.00;144992;626;6002;-79
2021/06/15 00:57:20;;;;;;;2.90;1.42;;;;;;;19.55;54.77;101234.53;144992;615;6002;-79
2021/06/15 00:59:49;;;;;;;2.42;1.40;;;;;;;19.62;56.02;101231.91;144992;564;6002;-79
2021/06/15 01:02:18;;;;;;;2.80;1.50;;;;;;;19.68;54.66;101224.88;144992;565;6002;-79
2021/06/15 01:04:52;;;;;;;2.58;1.40;;;;;;;19.72;55.16;101233.66;144992;594;6002;-80
2021/06/15 01:07:55;;;;;;;2.08;1.55;;;;;;;19.77;54.42;101218.75;144991;585;6002;-80
2021/06/15 01:11:01;;;;;;;5.03;1.85;;;;;;;19.87;55.36;101225.78;144992;579;6004;-79
2021/06/15 01:13:54;;;;;;;2.70;1.45;;;;;;;19.80;56.16;101218.75;144992;583;6004;-79
2021/06/15 01:16:51;;;;;;;2.00;1.40;;;;;;;19.66;55.65;101221.38;144992;583;6002;-79
2021/06/15 01:20:05;;;;;;;2.95;1.45;;;;;;;19.56;56.91;101223.09;144992;583;6002;-80
2021/06/15 01:23:44;;;;;;;4.82;1.50;;;;;;;19.49;56.41;101223.97;144992;595;6005;-79
2021/06/15 01:26:58;;;;;;;2.72;1.30;;;;;;;19.38;57.31;101221.34;144992;590;6004;-79
2021/06/15 01:29:31;;;;;;;3.22;1.37;;;;;;;19.40;55.17;101216.94;144992;577;6004;-80
2021/06/15 01:32:09;;;;;;;2.12;1.55;;;;;;;19.40;56.34;101218.69;144992;567;6004;-79
2021/06/15 01:34:43;;;;;;;7.65;1.55;;;;;;;19.30;57.36;101219.56;144992;608;6004;-80
2021/06/15 01:37:27;;;;;;;2.78;1.20;;;;;;;19.32;56.57;101215.19;144992;638;6004;-80
2021/06/15 01:40:01;;;;;;;2.40;1.23;;;;;;;19.21;57.06;101215.16;144992;571;6004;-79
2021/06/15 01:42:35;;;;;;;3.42;1.40;;;;;;;19.29;55.65;101216.03;144992;596;6004;-78
2021/06/15 01:45:09;;;;;;;2.73;1.40;;;;;;;19.48;54.55;101211.69;144991;579;6000;-78
2021/06/15 01:47:39;;;;;;;2.33;1.10;;;;;;;19.43;55.90;101208.19;144992;570;6002;-78
2021/06/15 01:50:09;;;;;;;3.28;1.30;;;;;;;19.50;54.92;101206.41;144992;602;6002;-78
2021/06/15 01:52:39;;;;;;;3.37;1.20;;;;;;;19.48;55.11;101211.69;144992;575;6002;-79
2021/06/15 01:55:08;;;;;;;2.00;1.25;;;;;;;19.56;55.32;101204.66;144992;589;6002;-79
2021/06/15 01:57:36;;;;;;;1.15;1.05;;;;;;;19.63;54.17;101202.03;144992;671;6002;-80
2021/06/15 02:00:13;;;;;;;2.20;1.20;;;;;;;19.65;54.41;101197.66;144992;570;6002;-80
2021/06/15 02:02:42;;;;;;;1.98;1.23;;;;;;;19.46;53.95;101197.66;144992;577;6002;-78
2021/06/15 02:05:12;;;;;;;2.33;0.90;;;;;;;19.52;54.13;101196.78;144992;563;6002;-78
2021/06/15 02:07:43;;;;;;;1.70;0.93;;;;;;;19.43;53.79;101192.38;144992;564;6002;-80
2021/06/15 02:10:12;;;;;;;1.42;1.02;;;;;;;19.41;53.61;101196.78;144992;613;6002;-79
2021/06/15 02:12:44;;;;;;;1.65;1.10;;;;;;;19.21;54.84;101189.72;144992;577;6002;-80
2021/06/15 02:15:13;;;;;;;1.60;1.00;;;;;;;19.11;54.73;101189.72;144991;571;6002;-79
2021/06/15 02:17:44;;;;;;;1.40;1.20;;;;;;;19.16;54.57;101190.59;144992;571;6002;-79
2021/06/15 02:20:13;;;;;;;1.62;1.33;;;;;;;19.23;55.24;101188.84;144992;599;6002;-80
2021/06/15 02:22:53;;;;;;;2.03;1.23;;;;;;;19.00;56.07;101202.84;144992;585;6002;-80
2021/06/15 02:25:24;;;;;;;2.78;1.02;;;;;;;19.00;56.03;101198.44;144992;583;6002;-78
2021/06/15 02:27:51;;;;;;;2.97;1.10;;;;;;;19.00;56.24;101216.00;144992;571;6002;-80
2021/06/15 02:30:18;;;;;;;7.07;1.30;;;;;;;18.92;56.37;101215.09;144992;573;6002;-79
2021/06/15 02:32:45;;;;;;;3.45;0.93;;;;;;;18.79;55.88;101212.38;144992;573;6002;-80
2021/06/15 02:35:13;;;;;;;2.75;1.20;;;;;;;18.66;56.09;101221.09;144992;605;6002;-79
2021/06/15 02:37:48;;;;;;;2.28;1.00;;;;;;;18.56;56.22;101214.91;144992;607;6002;-79
2021/06/15 02:40:15;;;;;;;1.67;1.00;;;;;;;18.51;56.50;101223.66;144992;606;6002;-78
2021/06/15 02:42:45;;;;;;;1.45;1.30;;;;;;;18.41;56.73;101209.59;144992;603;6002;-78
2021/06/15 02:45:18;;;;;;;2.17;1.00;;;;;;;18.54;56.26;101207.91;144992;573;6002;-79
2021/06/15 02:47:47;;;;;;;2.55;1.15;;;;;;;18.56;56.02;101214.03;144992;581;6002;-80
2021/06/15 02:50:17;;;;;;;1.42;1.00;;;;;;;18.64;56.01;101212.31;144992;631;6002;-80
2021/06/15 02:52:53;;;;;;;1.12;0.90;;;;;;;18.46;56.00;101206.09;144992;570;6002;-80
2021/06/15 02:55:29;;;;;;;2.05;1.00;;;;;;;18.44;56.04;101210.47;144992;570;6002;-79
2021/06/15 02:57:56;;;;;;;1.25;1.12;;;;;;;18.35;55.91;101212.19;144992;578;6002;-78
2021/06/15 03:00:22;;;;;;;2.42;1.00;;;;;;;18.35;55.69;101213.06;144992;571;6002;-80
2021/06/15 03:02:51;;;;;;;3.20;1.15;;;;;;;18.27;56.50;101220.88;144992;584;6002;-80
2021/06/15 03:05:20;;;;;;;2.67;0.90;;;;;;;18.35;56.37;101217.44;144992;585;6002;-81
2021/06/15 03:07:49;;;;;;;2.30;1.10;;;;;;;18.34;56.16;101210.41;144992;591;6002;-81
2021/06/15 03:10:17;;;;;;;2.10;1.15;;;;;;;18.48;55.54;101221.88;144992;600;6002;-80
2021/06/15 03:13:16;;;;;;;1.77;1.00;;;;;;;18.38;56.25;101220.94;144992;598;6002;-79
2021/06/15 03:15:52;;;;;;;2.12;1.00;;;;;;;18.13;56.32;101231.34;144992;571;6004;-80
2021/06/15 03:18:33;;;;;;;1.50;0.80;;;;;;;18.05;56.87;101229.50;144992;566;6004;-80
2021/06/15 03:21:03;;;;;;;2.03;1.12;;;;;;;18.04;56.50;101231.25;144991;601;6000;-80
2021/06/15 03:23:47;;;;;;;1.67;1.10;;;;;;;18.12;56.22;101232.19;144992;569;6002;-80
2021/06/15 03:26:21;;;;;;;1.73;1.00;;;;;;;18.07;56.71;101231.28;144992;594;6002;-80
2021/06/15 03:28:53;;;;;;;8.13;1.40;;;;;;;18.08;56.12;101232.16;144992;570;6003;-80
2021/06/15 03:31:22;;;;;;;4.68;1.00;;;;;;;18.02;56.74;101240.84;144992;621;6002;-80
2021/06/15 03:33:52;;;;;;;2.45;0.90;;;;;;;18.04;56.19;101241.78;144992;666;6002;-79
2021/06/15 03:36:21;;;;;;;8.93;1.60;;;;;;;18.13;56.50;101247.09;144992;594;6003;-79
2021/06/15 03:38:49;;;;;;;2.53;1.08;;;;;;;18.15;55.93;101247.09;144992;575;6002;-80
2021/06/15 03:41:17;;;;;;;1.60;0.90;;;;;;;18.15;56.52;101249.72;144992;584;6002;-79
2021/06/15 03:43:50;;;;;;;1.70;1.00;;;;;;;18.13;56.08;101260.22;144992;569;6002;-80
2021/06/15 03:46:19;;;;;;;2.50;1.20;;;;;;;18.25;56.28;101266.44;144992;601;6002;-78
2021/06/15 03:48:48;;;;;;;2.15;1.00;;;;;;;18.22;56.36;101275.16;144992;579;6002;-79
2021/06/15 03:51:31;;;;;;;1.30;0.95;;;;;;;18.20;56.89;101273.38;144992;570;6002;-80
2021/06/15 03:54:08;;;;;;;2.70;0.90;;;;;;;18.20;57.23;101274.28;144992;578;6002;-80
2021/06/15 03:56:40;;;;;;;2.65;0.90;;;;;;;18.21;57.44;101278.66;144992;618;6002;-87
2021/06/15 03:59:09;;;;;;;5.55;0.80;;;;;;;18.04;57.34;101285.53;144992;564;6002;-81
2021/06/15 04:01:38;;;;;;;1.00;0.90;;;;;;;18.00;57.44;101287.25;144992;642;6002;-79
2021/06/15 04:04:10;;;;;;;1.33;1.00;;;;;;;18.06;57.51;101274.19;144992;570;6002;-79
2021/06/15 04:06:49;;;;;;;2.70;1.20;;;;;;;18.03;57.45;101279.41;144992;589;6002;-78
2021/06/15 04:09:24;;;;;;;1.90;1.00;;;;;;;18.04;58.14;101280.28;144992;661;6002;-79
2021/06/15 04:11:53;;;;;;;3.10;1.10;;;;;;;18.19;56.95;101283.03;144992;635;6002;-78
2021/06/15 04:14:24;;;;;;;2.20;1.10;;;;;;;18.20;56.98;101291.78;144992;585;6002;-79
2021/06/15 04:16:52;;;;;;;1.55;1.12;;;;;;;18.22;57.46;101295.31;144992;578;6002;-80
2021/06/15 04:19:31;;;;;;;1.90;1.10;;;;;;;18.15;57.44;101297.03;144992;612;6002;-80
2021/06/15 04:22:00;;;;;;;2.10;1.12;;;;;;;18.04;57.76;101296.03;144992;684;6002;-80
2021/06/15 04:24:29;;;;;;;1.23;1.00;;;;;;;18.06;57.37;101295.19;144992;577;6002;-80
2021/06/15 04:27:00;;;;;;;3.45;1.00;;;;;;;18.02;57.35;101292.53;144992;564;6002;-79
2021/06/15 04:29:29;;;;;;;1.87;1.10;;;;;;;18.03;57.22;101295.16;144992;698;6002;-76
2021/06/15 04:32:05;;;;;;;3.85;1.55;;;;;;;18.08;57.57;101298.69;144992;566;6002;-79
2021/06/15 04:34:35;;;;;;;5.30;1.33;;;;;;;18.30;57.15;101289.22;144992;703;6002;-80
2021/06/15 04:37:05;;;;;;;2.78;1.40;;;;;;;18.29;56.33;101297.09;144992;613;6002;-79
2021/06/15 04:39:50;;;;;;;1.80;1.40;;;;;;;18.22;56.45;101292.69;144992;565;6002;-78
2021/06/15 04:42:27;;;;;;;2.65;1.70;;;;;;;18.25;56.53;101293.59;144992;608;6002;-79
2021/06/15 04:44:56;;;;;;;2.00;1.80;;;;;;;18.35;56.25;101301.53;144992;576;6002;-80
2021/06/15 04:47:32;;;;;;;5.22;2.25;;;;;;;18.46;55.79;101303.34;144992;674;6002;-79
2021/06/15 04:50:19;;;;;;;5.72;1.95;;;;;;;18.61;55.30;101306.94;144992;590;6002;-80
2021/06/15 04:52:50;;;;;;;3.75;2.05;;;;;;;18.66;54.95;101298.22;144992;584;6002;-79
2021/06/15 04:55:21;;;;;;;3.12;1.73;;;;;;;18.75;55.14;101302.66;144992;701;6002;-78
2021/06/15 04:57:49;;;;;;;3.55;1.70;;;;;;;18.84;55.19;101304.50;144992;696;6002;-78
2021/06/15 05:00:20;;;;;;;1.80;1.45;;;;;;;19.08;54.19;101305.47;144992;564;6002;-80
2021/06/15 05:02:49;;;;;;;2.67;1.65;;;;;;;19.24;54.15;101311.69;144992;576;6002;-79
2021/06/15 05:05:18;;;;;;;3.70;1.70;;;;;;;19.50;53.21;101317.00;144992;628;6002;-78
2021/06/15 05:07:45;;;;;;;1.62;1.30;;;;;;;19.70;52.84;101310.03;144992;724;6002;-79
2021/06/15 05:10:13;;;;;;;2.20;1.50;;;;;;;19.78;51.90;101314.47;144992;595;6002;-80
2021/06/15 05:12:45;;;;;;;1.85;1.40;;;;;;;19.92;52.48;101316.22;144992;672;6002;-79
2021/06/15 05:15:14;;;;;;;1.52;1.27;;;;;;;20.04;52.22;101319.75;144992;587;6002;-79
2021/06/15 05:17:47;;;;;;;3.10;1.50;;;;;;;20.21;52.03;101314.47;144991;570;6002;-78
2021/06/15 05:20:15;;;;;;;4.40;1.70;;;;;;;20.38;50.91;101317.97;144992;586;6002;-80
2021/06/15 05:23:08;;;;;;;4.72;2.33;;;;;;;20.46;51.30;101321.47;144992;667;6002;-80
2021/06/15 05:25:35;;;;;;;4.70;2.10;;;;;;;20.57;50.82;101317.94;144992;584;6002;-79
2021/06/15 05:28:02;;;;;;;3.85;2.03;;;;;;;20.51;51.50;101318.84;144992;629;6003;-79
2021/06/15 05:30:29;;;;;;;5.50;2.20;;;;;;;20.55;51.13;101320.56;144992;583;6002;-79
2021/06/15 05:32:56;;;;;;;4.60;1.80;;;;;;;20.62;51.25;101324.09;144992;613;6002;-78
2021/06/15 05:35:23;;;;;;;6.12;1.90;;;;;;;20.67;50.64;101329.41;144992;587;6002;-80
2021/06/15 05:37:49;;;;;;;3.65;1.70;;;;;;;20.74;50.18;101328.47;144992;565;6011;-78
2021/06/15 05:40:18;;;;;;;3.00;1.80;;;;;;;20.86;50.56;101338.16;144992;604;6002;-79
2021/06/15 05:42:45;;;;;;;5.25;1.70;;;;;;;20.97;50.35;101344.25;144992;563;6002;-79
2021/06/15 05:45:12;;;;;;;5.28;1.65;;;;;;;21.02;50.27;101347.75;144992;574;6002;-79
2021/06/15 05:47:38;;;;;;;3.12;1.60;;;;;;;21.06;50.04;101351.25;144992;656;6002;-82
2021/06/15 05:50:06;;;;;;;2.67;1.55;;;;;;;21.19;49.98;101351.22;144991;591;6002;-79
2021/06/15 05:52:34;;;;;;;1.90;1.40;;;;;;;21.24;48.89;101345.00;144992;597;6002;-79
2021/06/15 05:55:01;;;;;;;1.55;1.30;;;;;;;21.15;48.34;101346.81;144992;606;6002;-81
2021/06/15 05:57:30;;;;;;;2.37;1.40;;;;;;;21.09;49.71;101349.47;144992;579;6002;-77
2021/06/15 05:59:57;;;;;;;2.58;1.50;;;;;;;20.98;49.06;101349.53;144992;650;6002;-77
2021/06/15 06:02:25;;;;;;;3.37;1.30;;;;;;;21.08;49.53;101352.13;144992;590;6002;-80
2021/06/15 06:10:29;;;;;;;;;;;;;;;21.25;49.37;101357.34;144997;908;6002;-78
2021/06/15 06:12:55;;;;;;;2.67;1.27;;;;;;;21.15;49.48;101365.28;144997;614;6002;-79
2021/06/15 06:15:23;;;;;;;4.62;1.90;;;;;;;21.27;49.64;101358.19;144992;581;6002;-78
2021/06/15 06:17:50;;;;;;;2.25;1.27;;;;;;;21.33;48.48;101366.09;144992;563;6002;-79
2021/06/15 06:20:18;;;;;;;2.40;1.15;;;;;;;21.17;49.23;101355.63;144992;652;6002;-80
2021/06/15 06:22:45;;;;;;;4.82;1.25;;;;;;;21.05;49.05;101355.66;144992;634;6002;-77
2021/06/15 06:25:13;;;;;;;2.58;0.90;;;;;;;20.92;49.33;101365.37;144992;641;6002;-80
2021/06/15 06:27:41;;;;;;;4.05;0.80;;;;;;;21.04;49.33;101368.87;144993;590;6002;-80
2021/06/15 06:30:12;;;;;;;5.20;0.95;;;;;;;20.96;49.21;101361.84;144993;564;6005;-83
2021/06/15 06:32:38;;;;;;;2.00;0.77;;;;;;;21.09;49.05;101367.09;144993;655;6002;-80
2021/06/15 06:35:06;;;;;;;2.00;1.08;;;;;;;21.09;48.87;101359.16;144993;583;6002;-81
2021/06/15 06:37:33;;;;;;;2.90;1.00;;;;;;;21.10;48.88;101355.66;144993;582;6002;-78
2021/06/15 06:39:59;;;;;;;3.17;1.08;;;;;;;21.16;48.73;101358.28;144993;661;6002;-80
2021/06/15 06:42:26;;;;;;;3.90;1.10;;;;;;;21.22;48.46;101360.88;144993;597;6002;-79
2021/06/15 06:44:52;;;;;;;4.37;1.17;;;;;;;21.26;48.38;101356.47;144993;661;6002;-79
2021/06/15 06:47:19;;;;;;;2.22;0.98;;;;;;;21.30;47.98;101353.81;144993;640;6002;-79
2021/06/15 06:49:45;;;;;;;3.70;0.80;;;;;;;21.36;48.22;101353.78;144993;605;6002;-81
2021/06/15 06:52:12;;;;;;;3.45;1.17;;;;;;;21.43;47.79;101349.34;144993;671;6002;-82
2021/06/15 06:54:38;;;;;;;4.22;1.00;;;;;;;21.61;48.19;101352.81;144993;614;6002;-81
2021/06/15 06:57:06;;;;;;;1.58;1.00;;;;;;;21.60;47.33;101358.97;144993;653;6002;-87
2021/06/15 06:59:34;;;;;;;3.35;0.85;;;;;;;21.44;47.78;101348.44;144992;625;6002;-85
2021/06/15 07:02:00;;;;;;;1.98;0.90;;;;;;;21.68;47.46;101349.22;144992;618;6002;-82
2021/06/15 07:04:27;;;;;;;3.25;0.75;;;;;;;21.70;46.72;101352.75;144992;573;6002;-84
2021/06/15 07:06:54;;;;;;;3.60;1.45;;;;;;;21.41;47.72;101360.78;144992;602;6003;-85
2021/06/15 07:09:24;;;;;;;4.03;1.02;;;;;;;21.51;47.16;101347.56;144992;617;6002;-87
2021/06/15 07:11:50;;;;;;;3.70;1.10;;;;;;;21.23;47.73;101343.28;144992;554;6002;-83
2021/06/15 07:14:17;;;;;;;2.67;1.33;;;;;;;21.43;47.40;101344.06;144993;586;6002;-83
2021/06/15 07:16:43;;;;;;;2.15;1.20;;;;;;;21.45;47.42;101360.75;144993;585;6002;-78
2021/06/15 07:19:10;;;;;;;2.37;1.00;;;;;;;21.45;47.26;101359.91;144993;602;6002;-84
2021/06/15 07:21:37;;;;;;;1.83;1.20;;;;;;;21.58;47.19;101355.47;144993;569;6002;-83
2021/06/15 07:24:04;;;;;;;3.22;1.02;;;;;;;21.11;48.52;101349.47;144993;697;6002;-82
2021/06/15 07:26:31;;;;;;;2.47;1.37;;;;;;;21.07;48.82;101355.66;144993;725;6002;-82
2021/06/15 07:28:59;;;;;;;2.78;1.45;;;;;;;20.86;49.59;101348.69;144993;616;6002;-80
2021/06/15 07:31:26;;;;;;;5.45;1.10;;;;;;;20.71;50.13;101358.41;144993;591;6002;-82
2021/06/15 07:33:52;;;;;;;4.00;1.02;;;;;;;20.84;49.29;101351.34;144993;630;6002;-79
2021/06/15 07:36:20;;;;;;;2.28;1.25;;;;;;;21.01;49.42;101351.28;144993;569;6002;-83
2021/06/15 07:38:47;;;;;;;2.75;1.40;;;;;;;21.01;49.61;101340.72;144993;647;6002;-88
2021/06/15 07:41:14;;;;;;;4.22;1.50;;;;;;;20.85;50.30;101347.78;144993;564;6001;-88
2021/06/15 07:43:41;;;;;;;1.77;1.10;;;;;;;20.94;50.28;101355.69;144993;653;6002;-83
2021/06/15 07:46:08;;;;;;;1.83;1.20;;;;;;;21.17;49.86;101352.09;144993;576;6002;-89
2021/06/15 07:48:38;;;;;;;3.03;1.58;;;;;;;21.26;49.52;101354.69;144993;605;6002;-82
2021/06/15 07:51:05;;;;;;;5.32;1.55;;;;;;;20.96;50.11;101345.13;144993;595;6002;-86
2021/06/15 07:53:32;;;;;;;2.85;1.35;;;;;;;20.61;50.30;101346.94;144993;585;6002;-89
2021/06/15 07:55:59;;;;;;;1.67;1.40;;;;;;;20.52;50.29;101340.81;144993;569;6002;-86
2021/06/15 07:58:25;;;;;;;2.15;1.30;;;;;;;20.57;49.84;101339.03;144993;654;6002;-89
2021/06/15 08:00:52;;;;;;;3.15;1.40;;;;;;;20.41;50.44;101333.81;144993;569;6002;-88
2021/06/15 08:03:18;;;;;;;2.15;1.40;;;;;;;20.72;49.76;101335.53;144993;588;6002;-85
2021/06/15 08:05:45;;;;;;;3.30;1.60;;;;;;;21.00;48.92;101339.84;144994;572;5002;-86
2021/06/15 08:08:11;;;;;;;1.70;1.40;;;;;;;20.94;49.56;101339.84;144994;657;5002;-88
2021/06/15 08:10:38;;;;;;;2.08;1.30;;;;;;;21.10;48.83;101335.41;144994;590;5002;-86
2021/06/15 08:13:04;;;;;;;2.08;1.40;;;;;;;21.17;48.49;101336.25;144994;595;5002;-81
2021/06/15 08:15:31;;;;;;;2.83;1.33;;;;;;;21.04;48.52;101335.41;144994;724;5002;-85
2021/06/15 08:18:02;;;;;;;2.08;1.30;;;;;;;20.98;48.91;101332.81;144994;604;5002;-85
2021/06/15 08:20:34;;;;;;;5.82;1.30;;;;;;;21.29;48.22;101335.34;144994;565;5002;-86
2021/06/15 08:23:02;;;;;;;2.15;1.58;;;;;;;21.29;48.78;101341.47;144994;563;5002;-79
2021/06/15 08:25:28;;;;;;;2.35;1.55;;;;;;;21.54;48.33;101336.13;144994;607;5002;-83
2021/06/15 08:27:56;;;;;;;2.10;1.65;;;;;;;21.61;48.10;101335.19;144994;564;5002;-77
2021/06/15 08:30:23;;;;;;;4.10;1.48;;;;;;;21.61;48.13;101336.94;144994;598;5002;-80
2021/06/15 08:32:49;;;;;;;4.25;1.30;;;;;;;21.71;48.21;101331.59;144994;586;5002;-84
2021/06/15 08:35:20;;;;;;;3.30;1.40;;;;;;;21.55;48.39;101320.25;144994;656;5002;-80
2021/06/15 08:37:46;;;;;;;6.15;2.12;;;;;;;21.62;48.51;101323.72;144993;618;5002;-83
2021/06/15 08:40:13;;;;;;;2.28;1.52;;;;;;;21.79;47.94;101322.72;144994;670;5002;-82
2021/06/15 08:42:41;;;;;;;2.15;1.30;;;;;;;21.97;47.30;101317.31;144994;576;5002;-82
2021/06/15 08:45:10;;;;;;;1.23;1.12;;;;;;;21.87;47.12;101329.72;144994;575;5002;-87
2021/06/15 08:47:42;;;;;;;4.03;1.27;;;;;;;21.71;47.54;101313.09;144994;662;5002;-82
2021/06/15 08:50:10;;;;;;;1.95;1.45;;;;;;;21.75;47.42;101319.25;144994;610;5002;-79
2021/06/15 08:52:38;;;;;;;3.65;1.52;;;;;;;21.91;47.16;101320.00;144994;669;5002;-80
2021/06/15 08:55:06;;;;;;;1.85;1.37;;;;;;;21.76;47.57;101314.81;144994;589;5002;-82
2021/06/15 08:57:38;;;;;;;3.15;1.60;;;;;;;21.67;48.01;101326.34;144994;570;5002;-80
2021/06/15 09:00:07;;;;;;;3.10;1.30;;;;;;;21.65;47.08;101325.47;144994;655;5002;-82
2021/06/15 09:02:45;;;;;;;2.55;1.30;;;;;;;21.73;46.77;101321.91;144994;639;5002;-82
2021/06/15 09:05:17;;;;;;;4.00;1.60;;;;;;;21.73;47.31;101318.37;144994;564;5002;-90
2021/06/15 09:08:08;;;;;;;2.70;1.62;;;;;;;21.79;46.17;101317.44;144994;569;5002;-86
2021/06/15 09:10:41;;;;;;;5.68;1.40;;;;;;;21.72;46.93;101309.56;144994;628;5002;-84
2021/06/15 09:13:47;;;;;;;4.90;2.15;;;;;;;21.56;47.03;101319.34;144994;775;5002;-82
2021/06/15 09:16:28;;;;;;;3.70;1.85;;;;;;;21.59;46.86;101318.47;144994;583;5004;-79
2021/06/15 09:18:58;;;;;;;2.75;1.23;;;;;;;21.70;46.88;101321.03;144994;633;5004;-83
2021/06/15 09:21:48;;;;;;;2.28;1.40;;;;;;;21.83;46.49;101317.41;144994;660;5004;-88
2021/06/15 09:24:23;;;;;;;4.78;1.80;;;;;;;21.79;46.96;101320.09;144994;662;5002;-85
2021/06/15 09:27:09;;;;;;;3.00;1.55;;;;;;;21.87;46.88;101313.88;144994;615;5002;-83
2021/06/15 09:29:52;;;;;;;2.60;1.42;;;;;;;21.87;47.08;101316.50;144994;621;5002;-83
2021/06/15 09:32:40;;;;;;;2.37;1.70;;;;;;;22.00;47.58;101308.47;144994;684;5002;-78
2021/06/15 09:35:24;;;;;;;3.40;1.58;;;;;;;21.97;47.65;101308.50;144994;645;5002;-77
2021/06/15 09:38:15;;;;;;;5.07;2.08;;;;;;;22.01;47.91;101310.22;144994;803;5002;-80
2021/06/15 09:40:56;;;;;;;1.52;1.25;;;;;;;22.01;48.16;101316.38;144994;602;5003;-84
2021/06/15 09:43:27;;;;;;;3.95;1.50;;;;;;;22.46;47.11;101305.44;144993;615;5002;-80
2021/06/15 09:45:54;;;;;;;2.72;1.40;;;;;;;22.10;47.65;101312.81;144994;565;5002;-83
2021/06/15 09:48:33;;;;;;;4.37;1.70;;;;;;;22.43;47.24;101309.00;144994;625;5003;-83
2021/06/15 09:51:10;;;;;;;3.53;1.62;;;;;;;22.51;45.98;101310.69;144994;572;5002;-83
2021/06/15 09:53:43;;;;;;;5.30;1.55;;;;;;;22.61;45.33;101307.91;144994;647;5002;-82
2021/06/15 09:56:12;;;;;;;1.92;1.27;;;;;;;22.57;45.41;101314.16;144994;585;5002;-84
2021/06/15 09:58:50;;;;;;;4.72;1.70;;;;;;;22.45;45.09;101296.62;144994;569;5002;-80
2021/06/15 10:01:34;;;;;;;3.03;1.30;;;;;;;22.30;45.66;101306.47;144994;563;5002;-81
2021/06/15 10:04:23;;;;;;;4.20;1.45;;;;;;;22.23;45.61;101290.63;144994;639;5002;-82
2021/06/15 10:06:55;;;;;;;1.52;1.42;;;;;;;22.09;46.29;101296.03;144993;583;5002;-82
2021/06/15 10:09:30;;;;;;;2.72;1.62;;;;;;;22.21;46.30;101297.72;144994;635;5002;-81
2021/06/15 10:12:05;;;;;;;3.25;1.67;;;;;;;22.14;46.19;101295.13;144994;586;5002;-81
2021/06/15 10:14:31;;;;;;;;;;;;;;;21.97;46.37;101305.84;144998;915;5002;-81
2021/06/15 10:16:59;;;;;;;2.25;1.20;;;;;;;22.02;46.41;101304.94;144998;603;5002;-82
2021/06/15 10:19:26;;;;;;;6.53;1.58;;;;;;;21.93;47.05;101292.66;144994;642;5002;-83
2021/06/15 10:21:54;;;;;;;3.25;1.80;;;;;;;22.04;47.24;101289.94;144994;592;5002;-82
2021/06/15 10:24:24;;;;;;;2.78;1.60;;;;;;;22.17;46.45;101300.41;144994;571;5002;-80
2021/06/15 10:26:52;;;;;;;2.45;1.25;;;;;;;21.98;46.60;101295.25;144994;645;5012;-83
2021/06/15 10:29:20;;;;;;;4.10;1.30;;;;;;;21.73;47.81;101300.75;144994;639;5002;-82
2021/06/15 10:31:49;;;;;;;8.00;1.80;;;;;;;21.96;47.30;101299.69;144994;601;5002;-82
2021/06/15 10:34:48;;;;;;;3.78;1.87;;;;;;;21.96;47.37;101290.91;144994;667;5002;-81
2021/06/15 10:37:52;;;;;;;2.92;1.92;;;;;;;22.05;46.65;101291.69;144994;697;5004;-83
2021/06/15 10:40:40;;;;;;;3.53;1.50;;;;;;;22.25;46.89;101285.34;144994;609;5002;-84
2021/06/15 10:43:42;;;;;;;2.90;1.52;;;;;;;22.27;47.06;101292.38;144994;657;5004;-82
2021/06/15 10:46:35;;;;;;;2.37;1.50;;;;;;;22.16;46.78;101278.38;144994;623;5004;-82
2021/06/15 10:49:05;;;;;;;2.58;1.73;;;;;;;22.01;48.52;101289.94;144994;629;5002;-85
2021/06/15 10:51:41;;;;;;;2.00;1.35;;;;;;;22.10;47.17;101270.50;144994;586;5002;-88
2021/06/15 10:54:42;;;;;;;4.55;1.80;;;;;;;22.14;47.66;101269.56;144994;618;5002;-81
2021/06/15 10:57:29;;;;;;;3.80;2.45;;;;;;;22.21;49.77;101273.06;144994;679;5004;-79
2021/06/15 11:00:22;;;;;;;3.53;2.20;;;;;;;22.38;48.00;101273.78;144994;579;5002;-82
2021/06/15 11:03:24;;;;;;;4.95;2.08;;;;;;;22.62;47.17;101271.75;144994;700;5004;-81
2021/06/15 11:05:56;;;;;;;3.22;1.55;;;;;;;22.85;46.91;101273.25;144994;572;5002;-79
2021/06/15 11:08:30;;;;;;;2.60;1.37;;;;;;;22.91;46.13;101271.41;144994;614;5002;-81
2021/06/15 11:11:00;;;;;;;1.87;1.05;;;;;;;22.87;46.68;101268.81;144994;630;5002;-83
2021/06/15 11:14:30;;;;;;;3.67;1.30;;;;;;;22.82;46.19;101268.88;144994;649;5002;-81
2021/06/15 11:17:00;;;;;;;2.90;1.40;;;;;;;22.90;46.13;101250.25;144994;573;5002;-80
2021/06/15 11:19:31;;;;;;;5.97;3.85;;;;;;;22.65;44.45;101245.25;144994;599;5002;-82
2021/06/15 11:22:17;;;;;;;7.70;4.75;;;;;;;22.77;45.89;101252.19;144994;647;5002;-80
2021/06/15 11:24:50;;;;;;;4.20;2.35;;;;;;;22.86;45.73;101243.22;144994;565;5002;-81
2021/06/15 11:27:42;;;;;;;3.60;1.62;;;;;;;23.01;46.02;101248.34;144994;593;5002;-79
2021/06/15 11:30:27;;;;;;;3.20;1.50;;;;;;;23.00;45.79;101230.69;144994;580;5004;-79
2021/06/15 11:33:03;;;;;;;1.90;1.20;;;;;;;23.09;45.30;101235.91;144994;611;5017;-80
2021/06/15 11:35:37;;;;;;;2.33;1.45;;;;;;;23.09;44.91;101227.94;144994;570;5002;-79
2021/06/15 11:38:05;;;;;;;4.65;1.80;;;;;;;23.05;45.69;101222.69;144994;579;5002;-82
2021/06/15 11:40:34;;;;;;;2.85;1.60;;;;;;;23.15;44.49;101232.31;144994;565;5002;-78
2021/06/15 11:43:34;;;;;;;2.78;1.25;;;;;;;23.04;45.48;101227.13;144994;565;5002;-81
2021/06/15 11:46:19;;;;;;;2.05;1.20;;;;;;;22.90;45.35;101224.66;144994;641;5004;-81
2021/06/15 11:49:09;;;;;;;3.37;1.45;;;;;;;22.86;45.35;101222.06;144994;605;5004;-80
2021/06/15 11:51:36;;;;;;;1.73;1.40;;;;;;;22.86;44.64;101211.47;144994;578;5002;-79
2021/06/15 11:54:04;;;;;;;2.20;1.45;;;;;;;22.79;45.83;101206.25;144994;591;5002;-82
2021/06/15 11:56:31;;;;;;;2.15;1.50;;;;;;;22.95;45.22;101196.34;144994;585;5002;-80
2021/06/15 11:58:59;;;;;;;9.70;6.28;;;;;;;22.68;46.50;101202.87;144994;607;5002;-81
2021/06/15 12:01:26;;;;;;;7.45;3.05;;;;;;;22.79;46.47;101208.03;144994;590;5002;-86
2021/06/15 12:03:53;;;;;;;3.10;2.10;;;;;;;22.86;46.97;101209.72;144994;715;5002;-80
2021/06/15 12:06:21;;;;;;;2.60;1.83;;;;;;;22.85;46.49;101205.31;144994;580;5002;-82